Forest Lake, Michigan
Current Conditions -  °F | °C
As of 2:54 AM on Friday 24 Oct 2014 (Local Time) from KISQ Reporting Station
Haze Haze  
Wind Chill: 47°   Ceiling: 700
Heat Index: 49°   Visibility: 2.5mi
Dew Point: 48°   Wind: 5mph
Humidity: 97%   Direction: 230°SW
Pressure: 30"   Gusts: NA
Location:  46.4479°N, 86.4779°W
Report Text: KISQ 240654Z AUTO 23004KT 2 1/2SM BR OVC007 09/09 A3000 RMK AO2 T00930088
Loading
Personal Weather Stations






























Interactive Weather Map
Tropical Storm Tracking
New forecast layout! Learn more

10-Day Weather Forecast

Advertisements
Track Severe Weather on mobile